sensor_id;sensor_type;location;lat;lon;timestamp;P1;durP1;ratioP1;P2;durP2;ratioP2
29382;SDS011;16365;51.598;7.668;2023-02-11T10:54:09;103.05;;;39.33;;
29382;SDS011;16365;51.598;7.668;2023-02-11T10:59:24;94.75;;;40.92;;
29382;SDS011;16365;51.598;7.668;2023-02-11T11:01:58;92.88;;;40.22;;
29382;SDS011;16365;51.598;7.668;2023-02-11T11:07:11;105.03;;;43.05;;
29382;SDS011;16365;51.598;7.668;2023-02-11T11:15:22;92.80;;;39.78;;
29382;SDS011;16365;51.598;7.668;2023-02-11T11:18:15;100.60;;;41.55;;
29382;SDS011;16365;51.598;7.668;2023-02-11T11:20:58;108.97;;;43.38;;
29382;SDS011;16365;51.598;7.668;2023-02-11T11:23:28;100.53;;;42.55;;
29382;SDS011;16365;51.598;7.668;2023-02-11T11:28:37;109.45;;;45.63;;
29382;SDS011;16365;51.598;7.668;2023-02-11T11:31:11;108.80;;;42.55;;
29382;SDS011;16365;51.598;7.668;2023-02-11T11:33:41;106.30;;;43.65;;
29382;SDS011;16365;51.598;7.668;2023-02-11T11:36:13;111.65;;;46.38;;
29382;SDS011;16365;51.598;7.668;2023-02-11T11:38:52;107.75;;;42.35;;
29382;SDS011;16365;51.598;7.668;2023-02-11T11:41:27;106.47;;;42.80;;
29382;SDS011;16365;51.598;7.668;2023-02-11T11:49:44;109.80;;;46.08;;
29382;SDS011;16365;51.598;7.668;2023-02-11T11:52:45;110.40;;;44.15;;
29382;SDS011;16365;51.598;7.668;2023-02-11T11:55:24;102.72;;;41.78;;
29382;SDS011;16365;51.598;7.668;2023-02-11T11:57:56;109.23;;;44.60;;
29382;SDS011;16365;51.598;7.668;2023-02-11T12:00:30;111.57;;;44.22;;
29382;SDS011;16365;51.598;7.668;2023-02-11T12:06:11;106.18;;;45.40;;
29382;SDS011;16365;51.598;7.668;2023-02-11T12:17:13;106.47;;;45.03;;
29382;SDS011;16365;51.598;7.668;2023-02-11T12:31:34;109.75;;;45.92;;
29382;SDS011;16365;51.598;7.668;2023-02-11T12:34:26;104.05;;;46.50;;
29382;SDS011;16365;51.598;7.668;2023-02-11T12:42:17;107.57;;;48.08;;
29382;SDS011;16365;51.598;7.668;2023-02-11T12:45:34;102.90;;;46.88;;
29382;SDS011;16365;51.598;7.668;2023-02-11T12:57:05;107.93;;;47.65;;
29382;SDS011;16365;51.598;7.668;2023-02-11T13:02:25;98.63;;;47.97;;
29382;SDS011;16365;51.598;7.668;2023-02-11T13:04:53;109.72;;;48.10;;
29382;SDS011;16365;51.598;7.668;2023-02-11T13:10:25;109.28;;;49.20;;
29382;SDS011;16365;51.598;7.668;2023-02-11T13:12:57;108.95;;;48.75;;
29382;SDS011;16365;51.598;7.668;2023-02-11T13:18:56;105.28;;;46.42;;
29382;SDS011;16365;51.598;7.668;2023-02-11T13:27:50;103.88;;;46.85;;
29382;SDS011;16365;51.598;7.668;2023-02-11T13:33:01;98.10;;;46.10;;
29382;SDS011;16365;51.598;7.668;2023-02-11T13:35:37;99.60;;;45.65;;
29382;SDS011;16365;51.598;7.668;2023-02-11T13:40:44;101.47;;;46.05;;
29382;SDS011;16365;51.598;7.668;2023-02-11T13:43:34;100.45;;;45.42;;
29382;SDS011;16365;51.598;7.668;2023-02-11T13:46:02;111.03;;;47.47;;
29382;SDS011;16365;51.598;7.668;2023-02-11T13:48:38;97.25;;;44.85;;
29382;SDS011;16365;51.598;7.668;2023-02-11T13:51:13;97.05;;;43.38;;
29382;SDS011;16365;51.598;7.668;2023-02-11T13:53:52;101.68;;;43.70;;
29382;SDS011;16365;51.598;7.668;2023-02-11T13:56:28;94.15;;;42.28;;
29382;SDS011;16365;51.598;7.668;2023-02-11T13:58:59;91.60;;;41.88;;
29382;SDS011;16365;51.598;7.668;2023-02-11T14:04:32;90.25;;;41.45;;
29382;SDS011;16365;51.598;7.668;2023-02-11T14:07:27;84.57;;;41.45;;
29382;SDS011;16365;51.598;7.668;2023-02-11T14:13:25;85.18;;;40.67;;
29382;SDS011;16365;51.598;7.668;2023-02-11T14:19:03;73.82;;;36.90;;
29382;SDS011;16365;51.598;7.668;2023-02-11T14:21:32;91.57;;;43.03;;
29382;SDS011;16365;51.598;7.668;2023-02-11T14:26:33;88.80;;;42.10;;
29382;SDS011;16365;51.598;7.668;2023-02-11T14:32:15;77.90;;;38.78;;
29382;SDS011;16365;51.598;7.668;2023-02-11T14:43:44;87.30;;;39.97;;
29382;SDS011;16365;51.598;7.668;2023-02-11T14:46:18;83.20;;;39.53;;
29382;SDS011;16365;51.598;7.668;2023-02-11T14:48:46;90.43;;;42.03;;
29382;SDS011;16365;51.598;7.668;2023-02-11T14:51:29;84.38;;;41.08;;
29382;SDS011;16365;51.598;7.668;2023-02-11T14:56:43;80.13;;;41.42;;
29382;SDS011;16365;51.598;7.668;2023-02-11T14:59:21;91.20;;;44.28;;
29382;SDS011;16365;51.598;7.668;2023-02-11T15:01:48;96.85;;;45.63;;
29382;SDS011;16365;51.598;7.668;2023-02-11T15:07:02;96.10;;;44.15;;
29382;SDS011;16365;51.598;7.668;2023-02-11T15:09:48;96.82;;;46.72;;
29382;SDS011;16365;51.598;7.668;2023-02-11T15:12:26;102.60;;;46.42;;
29382;SDS011;16365;51.598;7.668;2023-02-11T15:15:01;87.97;;;43.13;;
29382;SDS011;16365;51.598;7.668;2023-02-11T15:17:29;99.65;;;44.58;;
29382;SDS011;16365;51.598;7.668;2023-02-11T15:19:58;98.97;;;44.67;;
29382;SDS011;16365;51.598;7.668;2023-02-11T15:22:28;95.50;;;45.22;;
29382;SDS011;16365;51.598;7.668;2023-02-11T15:24:59;90.85;;;43.90;;
29382;SDS011;16365;51.598;7.668;2023-02-11T15:27:36;90.32;;;43.42;;
29382;SDS011;16365;51.598;7.668;2023-02-11T15:32:56;87.95;;;41.47;;
29382;SDS011;16365;51.598;7.668;2023-02-11T15:35:26;107.43;;;47.92;;
29382;SDS011;16365;51.598;7.668;2023-02-11T15:37:54;89.63;;;44.47;;
29382;SDS011;16365;51.598;7.668;2023-02-11T15:43:02;90.30;;;41.97;;
29382;SDS011;16365;51.598;7.668;2023-02-11T15:45:32;90.00;;;45.08;;
29382;SDS011;16365;51.598;7.668;2023-02-11T15:48:08;88.55;;;44.50;;
29382;SDS011;16365;51.598;7.668;2023-02-11T15:50:53;92.75;;;43.25;;
29382;SDS011;16365;51.598;7.668;2023-02-11T15:53:35;90.25;;;43.20;;
29382;SDS011;16365;51.598;7.668;2023-02-11T15:56:19;93.15;;;43.40;;
29382;SDS011;16365;51.598;7.668;2023-02-11T15:58:50;87.28;;;42.47;;
29382;SDS011;16365;51.598;7.668;2023-02-11T16:01:33;88.53;;;41.42;;
29382;SDS011;16365;51.598;7.668;2023-02-11T16:04:02;80.05;;;40.58;;
29382;SDS011;16365;51.598;7.668;2023-02-11T16:06:37;78.43;;;40.97;;
29382;SDS011;16365;51.598;7.668;2023-02-11T16:14:21;74.15;;;37.67;;
29382;SDS011;16365;51.598;7.668;2023-02-11T16:17:04;78.50;;;37.63;;
29382;SDS011;16365;51.598;7.668;2023-02-11T16:19:43;77.07;;;37.83;;
29382;SDS011;16365;51.598;7.668;2023-02-11T16:22:15;75.95;;;36.45;;
29382;SDS011;16365;51.598;7.668;2023-02-11T16:24:48;74.20;;;36.97;;
29382;SDS011;16365;51.598;7.668;2023-02-11T16:27:28;75.75;;;37.88;;
29382;SDS011;16365;51.598;7.668;2023-02-11T16:30:16;69.45;;;36.22;;
29382;SDS011;16365;51.598;7.668;2023-02-11T16:32:54;65.97;;;34.17;;
29382;SDS011;16365;51.598;7.668;2023-02-11T16:35:25;72.15;;;36.88;;
29382;SDS011;16365;51.598;7.668;2023-02-11T16:37:51;73.55;;;37.20;;
29382;SDS011;16365;51.598;7.668;2023-02-11T16:40:18;68.00;;;34.53;;
29382;SDS011;16365;51.598;7.668;2023-02-11T16:42:44;69.75;;;36.20;;
29382;SDS011;16365;51.598;7.668;2023-02-11T16:45:11;72.55;;;34.95;;
29382;SDS011;16365;51.598;7.668;2023-02-11T16:47:38;71.05;;;36.60;;
29382;SDS011;16365;51.598;7.668;2023-02-11T16:50:07;79.70;;;36.22;;
29382;SDS011;16365;51.598;7.668;2023-02-11T16:52:36;69.88;;;35.75;;
29382;SDS011;16365;51.598;7.668;2023-02-11T16:55:03;76.97;;;37.97;;
29382;SDS011;16365;51.598;7.668;2023-02-11T16:57:30;78.05;;;37.67;;
29382;SDS011;16365;51.598;7.668;2023-02-11T16:59:58;87.10;;;38.92;;
29382;SDS011;16365;51.598;7.668;2023-02-11T17:02:26;84.10;;;41.15;;
29382;SDS011;16365;51.598;7.668;2023-02-11T17:04:57;88.80;;;39.78;;
29382;SDS011;16365;51.598;7.668;2023-02-11T17:07:25;98.10;;;43.45;;
29382;SDS011;16365;51.598;7.668;2023-02-11T17:09:52;87.40;;;41.42;;
29382;SDS011;16365;51.598;7.668;2023-02-11T17:12:19;94.15;;;42.25;;
29382;SDS011;16365;51.598;7.668;2023-02-11T17:14:46;86.75;;;41.75;;
29382;SDS011;16365;51.598;7.668;2023-02-11T17:17:13;82.15;;;39.35;;
29382;SDS011;16365;51.598;7.668;2023-02-11T17:19:39;84.50;;;39.15;;
29382;SDS011;16365;51.598;7.668;2023-02-11T17:22:05;92.80;;;41.67;;
29382;SDS011;16365;51.598;7.668;2023-02-11T17:24:32;87.10;;;41.58;;
29382;SDS011;16365;51.598;7.668;2023-02-11T17:26:59;95.80;;;42.60;;
29382;SDS011;16365;51.598;7.668;2023-02-11T17:29:25;92.90;;;41.90;;
29382;SDS011;16365;51.598;7.668;2023-02-11T17:31:52;92.47;;;42.30;;
29382;SDS011;16365;51.598;7.668;2023-02-11T17:34:19;87.53;;;40.75;;
29382;SDS011;16365;51.598;7.668;2023-02-11T17:36:47;94.13;;;42.53;;
29382;SDS011;16365;51.598;7.668;2023-02-11T17:39:14;86.15;;;39.95;;
29382;SDS011;16365;51.598;7.668;2023-02-11T17:41:41;87.57;;;40.38;;
29382;SDS011;16365;51.598;7.668;2023-02-11T17:44:08;75.07;;;36.05;;
29382;SDS011;16365;51.598;7.668;2023-02-11T17:46:37;84.57;;;40.78;;
29382;SDS011;16365;51.598;7.668;2023-02-11T17:49:04;86.55;;;39.17;;
29382;SDS011;16365;51.598;7.668;2023-02-11T17:51:34;91.55;;;40.35;;
29382;SDS011;16365;51.598;7.668;2023-02-11T17:54:08;81.20;;;40.67;;
29382;SDS011;16365;51.598;7.668;2023-02-11T17:56:37;94.30;;;43.47;;
29382;SDS011;16365;51.598;7.668;2023-02-11T17:59:04;91.45;;;42.05;;
29382;SDS011;16365;51.598;7.668;2023-02-11T18:01:32;96.78;;;43.78;;
29382;SDS011;16365;51.598;7.668;2023-02-11T18:04:00;81.77;;;40.80;;
29382;SDS011;16365;51.598;7.668;2023-02-11T18:06:29;158.00;;;73.63;;
29382;SDS011;16365;51.598;7.668;2023-02-11T18:08:56;106.38;;;51.60;;
29382;SDS011;16365;51.598;7.668;2023-02-11T18:11:24;88.82;;;45.42;;
29382;SDS011;16365;51.598;7.668;2023-02-11T18:13:53;91.15;;;42.17;;
29382;SDS011;16365;51.598;7.668;2023-02-11T18:16:20;91.88;;;41.97;;
29382;SDS011;16365;51.598;7.668;2023-02-11T18:18:47;88.72;;;41.90;;
29382;SDS011;16365;51.598;7.668;2023-02-11T18:21:16;92.28;;;42.05;;
29382;SDS011;16365;51.598;7.668;2023-02-11T18:23:45;90.05;;;41.90;;
29382;SDS011;16365;51.598;7.668;2023-02-11T18:26:12;93.75;;;42.45;;
29382;SDS011;16365;51.598;7.668;2023-02-11T18:28:40;88.57;;;40.92;;
29382;SDS011;16365;51.598;7.668;2023-02-11T18:31:11;81.43;;;40.70;;
29382;SDS011;16365;51.598;7.668;2023-02-11T18:33:39;89.55;;;41.58;;
29382;SDS011;16365;51.598;7.668;2023-02-11T18:36:07;81.95;;;38.92;;
29382;SDS011;16365;51.598;7.668;2023-02-11T18:38:44;82.75;;;39.92;;
29382;SDS011;16365;51.598;7.668;2023-02-11T18:41:11;87.03;;;40.35;;
29382;SDS011;16365;51.598;7.668;2023-02-11T18:43:38;86.40;;;41.47;;
29382;SDS011;16365;51.598;7.668;2023-02-11T18:46:06;79.47;;;39.00;;
29382;SDS011;16365;51.598;7.668;2023-02-11T18:48:34;82.75;;;39.20;;
29382;SDS011;16365;51.598;7.668;2023-02-11T18:51:01;78.85;;;38.10;;
29382;SDS011;16365;51.598;7.668;2023-02-11T18:53:27;84.20;;;39.60;;
29382;SDS011;16365;51.598;7.668;2023-02-11T18:55:54;88.93;;;43.47;;
29382;SDS011;16365;51.598;7.668;2023-02-11T18:58:21;92.35;;;41.63;;
29382;SDS011;16365;51.598;7.668;2023-02-11T19:00:48;90.45;;;42.35;;
29382;SDS011;16365;51.598;7.668;2023-02-11T19:03:15;93.78;;;43.58;;
29382;SDS011;16365;51.598;7.668;2023-02-11T19:05:43;86.55;;;41.58;;
29382;SDS011;16365;51.598;7.668;2023-02-11T19:10:39;77.43;;;38.28;;
29382;SDS011;16365;51.598;7.668;2023-02-11T19:13:08;93.30;;;41.38;;
29382;SDS011;16365;51.598;7.668;2023-02-11T19:15:39;90.18;;;41.78;;
29382;SDS011;16365;51.598;7.668;2023-02-11T19:18:10;86.93;;;41.25;;
29382;SDS011;16365;51.598;7.668;2023-02-11T19:23:05;95.75;;;41.22;;
29382;SDS011;16365;51.598;7.668;2023-02-11T19:25:32;86.50;;;40.97;;
29382;SDS011;16365;51.598;7.668;2023-02-11T19:27:59;91.28;;;42.22;;
29382;SDS011;16365;51.598;7.668;2023-02-11T19:30:26;87.85;;;40.92;;
29382;SDS011;16365;51.598;7.668;2023-02-11T19:32:53;94.32;;;44.50;;
29382;SDS011;16365;51.598;7.668;2023-02-11T19:35:22;92.25;;;42.53;;
29382;SDS011;16365;51.598;7.668;2023-02-11T19:37:49;92.25;;;45.00;;
29382;SDS011;16365;51.598;7.668;2023-02-11T19:40:15;97.00;;;43.55;;
29382;SDS011;16365;51.598;7.668;2023-02-11T19:42:43;88.88;;;42.00;;
29382;SDS011;16365;51.598;7.668;2023-02-11T19:45:10;84.00;;;41.75;;
29382;SDS011;16365;51.598;7.668;2023-02-11T19:47:36;99.65;;;43.25;;
29382;SDS011;16365;51.598;7.668;2023-02-11T19:50:03;87.35;;;41.15;;
29382;SDS011;16365;51.598;7.668;2023-02-11T19:52:30;92.38;;;43.05;;
29382;SDS011;16365;51.598;7.668;2023-02-11T19:54:57;88.90;;;42.28;;
29382;SDS011;16365;51.598;7.668;2023-02-11T19:57:24;101.93;;;47.33;;
29382;SDS011;16365;51.598;7.668;2023-02-11T19:59:51;97.65;;;44.78;;
29382;SDS011;16365;51.598;7.668;2023-02-11T20:02:19;91.32;;;42.00;;
29382;SDS011;16365;51.598;7.668;2023-02-11T20:04:46;104.07;;;44.10;;
29382;SDS011;16365;51.598;7.668;2023-02-11T20:07:13;95.25;;;44.47;;
29382;SDS011;16365;51.598;7.668;2023-02-11T20:09:39;99.55;;;42.90;;
29382;SDS011;16365;51.598;7.668;2023-02-11T20:12:08;95.68;;;45.00;;
29382;SDS011;16365;51.598;7.668;2023-02-11T20:14:35;92.88;;;43.40;;
29382;SDS011;16365;51.598;7.668;2023-02-11T20:17:02;95.93;;;44.47;;
29382;SDS011;16365;51.598;7.668;2023-02-11T20:19:28;104.30;;;44.78;;
29382;SDS011;16365;51.598;7.668;2023-02-11T20:21:55;96.40;;;42.90;;
29382;SDS011;16365;51.598;7.668;2023-02-11T20:24:22;93.43;;;45.15;;
29382;SDS011;16365;51.598;7.668;2023-02-11T20:26:50;96.53;;;45.53;;
29382;SDS011;16365;51.598;7.668;2023-02-11T20:29:20;98.13;;;45.08;;
29382;SDS011;16365;51.598;7.668;2023-02-11T20:31:48;98.25;;;45.25;;
29382;SDS011;16365;51.598;7.668;2023-02-11T20:34:15;96.95;;;43.85;;
29382;SDS011;16365;51.598;7.668;2023-02-11T20:36:43;101.43;;;47.22;;
29382;SDS011;16365;51.598;7.668;2023-02-11T20:39:16;96.95;;;46.25;;
29382;SDS011;16365;51.598;7.668;2023-02-11T20:41:43;103.88;;;46.50;;
29382;SDS011;16365;51.598;7.668;2023-02-11T20:44:11;103.40;;;46.70;;
29382;SDS011;16365;51.598;7.668;2023-02-11T20:46:43;108.15;;;50.20;;
29382;SDS011;16365;51.598;7.668;2023-02-11T20:49:14;108.57;;;51.40;;
29382;SDS011;16365;51.598;7.668;2023-02-11T20:51:45;106.90;;;48.05;;
29382;SDS011;16365;51.598;7.668;2023-02-11T20:54:13;110.22;;;49.50;;
29382;SDS011;16365;51.598;7.668;2023-02-11T20:56:42;110.95;;;50.33;;
29382;SDS011;16365;51.598;7.668;2023-02-11T20:59:12;106.50;;;49.17;;
29382;SDS011;16365;51.598;7.668;2023-02-11T21:01:40;107.63;;;48.72;;
29382;SDS011;16365;51.598;7.668;2023-02-11T21:04:10;105.82;;;49.15;;
29382;SDS011;16365;51.598;7.668;2023-02-11T21:06:41;95.53;;;46.72;;
29382;SDS011;16365;51.598;7.668;2023-02-11T21:09:10;109.18;;;48.78;;
29382;SDS011;16365;51.598;7.668;2023-02-11T21:11:39;107.65;;;50.08;;
29382;SDS011;16365;51.598;7.668;2023-02-11T21:14:07;106.72;;;49.25;;
29382;SDS011;16365;51.598;7.668;2023-02-11T21:16:35;106.55;;;49.72;;
29382;SDS011;16365;51.598;7.668;2023-02-11T21:19:01;105.03;;;47.55;;
29382;SDS011;16365;51.598;7.668;2023-02-11T21:21:30;110.80;;;50.13;;
29382;SDS011;16365;51.598;7.668;2023-02-11T21:23:57;107.22;;;49.55;;
29382;SDS011;16365;51.598;7.668;2023-02-11T21:26:26;109.00;;;49.72;;
29382;SDS011;16365;51.598;7.668;2023-02-11T21:28:53;114.97;;;51.13;;
29382;SDS011;16365;51.598;7.668;2023-02-11T21:31:21;112.40;;;51.08;;
29382;SDS011;16365;51.598;7.668;2023-02-11T21:33:52;121.30;;;51.55;;
29382;SDS011;16365;51.598;7.668;2023-02-11T21:36:22;117.13;;;52.67;;
29382;SDS011;16365;51.598;7.668;2023-02-11T21:38:49;122.47;;;53.70;;
29382;SDS011;16365;51.598;7.668;2023-02-11T21:41:16;114.40;;;53.20;;
29382;SDS011;16365;51.598;7.668;2023-02-11T21:43:44;113.82;;;52.13;;
29382;SDS011;16365;51.598;7.668;2023-02-11T21:46:12;115.65;;;53.92;;
29382;SDS011;16365;51.598;7.668;2023-02-11T21:48:40;112.78;;;51.20;;
29382;SDS011;16365;51.598;7.668;2023-02-11T21:51:08;114.10;;;52.03;;
29382;SDS011;16365;51.598;7.668;2023-02-11T21:53:38;109.15;;;52.65;;
29382;SDS011;16365;51.598;7.668;2023-02-11T21:56:06;125.95;;;51.97;;
29382;SDS011;16365;51.598;7.668;2023-02-11T21:58:35;114.45;;;55.30;;
29382;SDS011;16365;51.598;7.668;2023-02-11T22:01:08;115.22;;;53.38;;
29382;SDS011;16365;51.598;7.668;2023-02-11T22:03:37;116.13;;;52.00;;
29382;SDS011;16365;51.598;7.668;2023-02-11T22:06:10;124.75;;;54.03;;
29382;SDS011;16365;51.598;7.668;2023-02-11T22:08:41;110.90;;;53.33;;
29382;SDS011;16365;51.598;7.668;2023-02-11T22:11:08;112.97;;;51.83;;
29382;SDS011;16365;51.598;7.668;2023-02-11T22:13:37;122.68;;;52.55;;
29382;SDS011;16365;51.598;7.668;2023-02-11T22:16:05;101.30;;;50.72;;
29382;SDS011;16365;51.598;7.668;2023-02-11T22:18:37;107.45;;;49.15;;
29382;SDS011;16365;51.598;7.668;2023-02-11T22:21:08;109.18;;;51.33;;
29382;SDS011;16365;51.598;7.668;2023-02-11T22:23:37;103.93;;;48.50;;
29382;SDS011;16365;51.598;7.668;2023-02-11T22:26:06;106.22;;;50.30;;
29382;SDS011;16365;51.598;7.668;2023-02-11T22:28:36;108.65;;;48.38;;
29382;SDS011;16365;51.598;7.668;2023-02-11T22:31:15;111.05;;;49.53;;
29382;SDS011;16365;51.598;7.668;2023-02-11T22:33:44;106.78;;;49.10;;
29382;SDS011;16365;51.598;7.668;2023-02-11T22:36:15;104.10;;;50.13;;
29382;SDS011;16365;51.598;7.668;2023-02-11T22:38:43;105.65;;;50.78;;
29382;SDS011;16365;51.598;7.668;2023-02-11T22:41:10;106.93;;;49.45;;
29382;SDS011;16365;51.598;7.668;2023-02-11T22:43:37;101.95;;;50.30;;
29382;SDS011;16365;51.598;7.668;2023-02-11T22:46:05;102.20;;;48.90;;
29382;SDS011;16365;51.598;7.668;2023-02-11T22:48:33;103.28;;;49.38;;
29382;SDS011;16365;51.598;7.668;2023-02-11T22:51:07;102.50;;;47.80;;
29382;SDS011;16365;51.598;7.668;2023-02-11T22:53:37;105.43;;;49.25;;
29382;SDS011;16365;51.598;7.668;2023-02-11T22:56:05;99.78;;;47.55;;
29382;SDS011;16365;51.598;7.668;2023-02-11T22:58:40;99.13;;;47.25;;
29382;SDS011;16365;51.598;7.668;2023-02-11T23:01:06;98.15;;;47.17;;
29382;SDS011;16365;51.598;7.668;2023-02-11T23:03:33;97.45;;;46.95;;
29382;SDS011;16365;51.598;7.668;2023-02-11T23:06:00;97.30;;;47.45;;
29382;SDS011;16365;51.598;7.668;2023-02-11T23:08:28;98.38;;;47.22;;
29382;SDS011;16365;51.598;7.668;2023-02-11T23:11:02;97.22;;;46.45;;
29382;SDS011;16365;51.598;7.668;2023-02-11T23:13:32;93.18;;;46.08;;
29382;SDS011;16365;51.598;7.668;2023-02-11T23:16:01;92.40;;;45.55;;
29382;SDS011;16365;51.598;7.668;2023-02-11T23:18:32;95.95;;;45.92;;
29382;SDS011;16365;51.598;7.668;2023-02-11T23:21:07;98.15;;;45.03;;
29382;SDS011;16365;51.598;7.668;2023-02-11T23:23:38;92.57;;;44.35;;
29382;SDS011;16365;51.598;7.668;2023-02-11T23:26:07;94.20;;;45.80;;
29382;SDS011;16365;51.598;7.668;2023-02-11T23:28:35;90.93;;;45.75;;
29382;SDS011;16365;51.598;7.668;2023-02-11T23:31:12;102.82;;;46.35;;
29382;SDS011;16365;51.598;7.668;2023-02-11T23:33:42;93.78;;;43.45;;
29382;SDS011;16365;51.598;7.668;2023-02-11T23:36:09;89.85;;;45.38;;
29382;SDS011;16365;51.598;7.668;2023-02-11T23:38:35;85.68;;;41.55;;
29382;SDS011;16365;51.598;7.668;2023-02-11T23:41:02;91.63;;;43.60;;
29382;SDS011;16365;51.598;7.668;2023-02-11T23:43:29;92.63;;;45.42;;
29382;SDS011;16365;51.598;7.668;2023-02-11T23:45:56;87.00;;;44.22;;
29382;SDS011;16365;51.598;7.668;2023-02-11T23:48:23;90.85;;;45.38;;
29382;SDS011;16365;51.598;7.668;2023-02-11T23:50:49;88.65;;;43.50;;
29382;SDS011;16365;51.598;7.668;2023-02-11T23:53:16;82.85;;;41.90;;
29382;SDS011;16365;51.598;7.668;2023-02-11T23:55:43;89.18;;;43.53;;
29382;SDS011;16365;51.598;7.668;2023-02-11T23:58:11;86.05;;;40.60;;
